createdAt,value
2022-11-18T00:01:22.507Z,100.00
2022-11-18T00:03:50.171Z,100.00
2022-11-18T00:06:20.218Z,100.00
2022-11-18T00:08:47.660Z,100.00
2022-11-18T00:11:39.741Z,100.00
2022-11-18T00:14:22.362Z,100.00
2022-11-18T00:17:01.347Z,100.00
2022-11-18T00:19:38.365Z,100.00
2022-11-18T00:22:15.649Z,100.00
2022-11-18T00:24:42.089Z,100.00
2022-11-18T00:27:08.501Z,100.00
2022-11-18T00:29:34.925Z,100.00
2022-11-18T00:32:01.362Z,100.00
2022-11-18T00:34:27.870Z,100.00
2022-11-18T00:36:54.330Z,100.00
2022-11-18T00:39:21.637Z,100.00
2022-11-18T00:42:07.709Z,100.00
2022-11-18T00:44:34.225Z,100.00
2022-11-18T00:47:00.649Z,100.00
2022-11-18T00:49:27.105Z,100.00
2022-11-18T00:51:53.522Z,100.00
2022-11-18T00:54:20.338Z,100.00
2022-11-18T00:56:46.890Z,100.00
2022-11-18T00:59:13.329Z,100.00
2022-11-18T01:01:39.737Z,100.00
2022-11-18T01:04:06.369Z,100.00
2022-11-18T01:06:32.838Z,100.00
2022-11-18T01:08:59.239Z,100.00
2022-11-18T01:11:44.624Z,100.00
2022-11-18T01:14:11.090Z,100.00
2022-11-18T01:16:37.490Z,100.00
2022-11-18T01:19:04.001Z,100.00
2022-11-18T01:21:30.478Z,100.00
2022-11-18T01:23:56.926Z,100.00
2022-11-18T01:26:23.322Z,100.00
2022-11-18T01:28:49.757Z,100.00
2022-11-18T01:31:19.328Z,100.00
2022-11-18T01:33:46.772Z,100.00
2022-11-18T01:36:19.969Z,100.00
2022-11-18T01:38:46.694Z,100.00
2022-11-18T01:41:13.495Z,100.00
2022-11-18T01:44:00.218Z,100.00
2022-11-18T01:46:29.603Z,100.00
2022-11-18T01:49:14.640Z,100.00
2022-11-18T01:51:48.075Z,100.00
2022-11-18T01:54:21.227Z,100.00
2022-11-18T01:56:53.919Z,100.00
2022-11-18T01:59:28.076Z,100.00
2022-11-18T02:02:00.822Z,100.00
2022-11-18T02:04:27.847Z,100.00
2022-11-18T02:06:55.524Z,100.00
2022-11-18T02:09:22.836Z,100.00
2022-11-18T02:11:54.238Z,100.00
2022-11-18T02:14:30.432Z,100.00
2022-11-18T02:17:22.503Z,100.00
2022-11-18T02:20:19.866Z,100.00
2022-11-18T02:23:14.075Z,100.00
2022-11-18T02:26:04.058Z,100.00
2022-11-18T02:28:36.935Z,100.00
2022-11-18T02:31:35.911Z,100.00
2022-11-18T02:34:28.430Z,100.00
2022-11-18T02:37:04.487Z,100.00
2022-11-18T02:39:39.387Z,100.00
2022-11-18T02:42:10.561Z,100.00
2022-11-18T02:44:39.445Z,100.00
2022-11-18T02:47:10.333Z,100.00
2022-11-18T02:49:43.268Z,100.00
2022-11-18T02:52:11.865Z,100.00
2022-11-18T02:54:41.575Z,100.00
2022-11-18T02:57:08.880Z,100.00
2022-11-18T02:59:35.342Z,100.00
2022-11-18T03:02:01.806Z,100.00
2022-11-18T03:04:28.905Z,100.00
2022-11-18T03:07:13.422Z,100.00
2022-11-18T03:09:44.177Z,100.00
2022-11-18T03:12:41.621Z,100.00
2022-11-18T03:15:36.427Z,100.00
2022-11-18T03:18:25.583Z,100.00
2022-11-18T03:21:39.107Z,100.00
2022-11-18T03:24:21.146Z,100.00
2022-11-18T03:27:24.764Z,100.00
2022-11-18T03:30:08.711Z,100.00
2022-11-18T03:32:39.842Z,100.00
2022-11-18T03:35:12.715Z,100.00
2022-11-18T03:37:41.932Z,100.00
2022-11-18T03:40:21.108Z,100.00
2022-11-18T03:42:53.441Z,100.00
2022-11-18T03:45:25.273Z,100.00
2022-11-18T03:47:59.107Z,100.00
2022-11-18T03:50:41.721Z,100.00
2022-11-18T03:53:11.015Z,100.00
2022-11-18T03:55:41.863Z,100.00
2022-11-18T03:58:16.172Z,100.00
2022-11-18T04:00:49.767Z,100.00
2022-11-18T04:03:16.389Z,100.00
2022-11-18T04:05:43.981Z,100.00
2022-11-18T04:08:19.879Z,100.00
2022-11-18T04:10:55.568Z,100.00
2022-11-18T04:13:26.946Z,100.00
2022-11-18T04:15:54.397Z,100.00
2022-11-18T04:18:21.024Z,100.00
2022-11-18T04:20:47.455Z,100.00
2022-11-18T04:23:13.903Z,100.00
2022-11-18T04:25:40.333Z,100.00
2022-11-18T04:28:06.857Z,100.00
2022-11-18T04:30:34.329Z,100.00
2022-11-18T04:33:00.959Z,100.00
2022-11-18T04:35:27.615Z,100.00
2022-11-18T04:37:54.641Z,100.00
2022-11-18T04:40:21.244Z,100.00
2022-11-18T04:42:47.815Z,100.00
2022-11-18T04:45:14.248Z,100.00
2022-11-18T04:47:40.854Z,100.00
2022-11-18T04:50:07.444Z,100.00
2022-11-18T04:52:34.584Z,100.00
2022-11-18T04:55:01.023Z,100.00
2022-11-18T04:57:27.547Z,100.00
2022-11-18T04:59:54.046Z,100.00
2022-11-18T05:02:20.562Z,100.00
2022-11-18T05:04:47.117Z,100.00
2022-11-18T05:07:15.340Z,100.00
2022-11-18T05:09:41.861Z,100.00
2022-11-18T05:12:31.977Z,100.00
2022-11-18T05:14:58.517Z,100.00
2022-11-18T05:17:25.229Z,100.00
2022-11-18T05:19:51.667Z,100.00
2022-11-18T05:22:18.301Z,100.00
2022-11-18T05:24:44.749Z,100.00
2022-11-18T05:27:11.629Z,100.00
2022-11-18T05:29:38.038Z,100.00
2022-11-18T05:32:04.959Z,100.00
2022-11-18T05:34:31.405Z,100.00
2022-11-18T05:36:57.833Z,100.00
2022-11-18T05:39:24.501Z,100.00
2022-11-18T05:42:09.258Z,100.00
2022-11-18T05:44:35.672Z,100.00
2022-11-18T05:47:02.101Z,100.00
2022-11-18T05:49:28.547Z,100.00
2022-11-18T05:51:54.989Z,100.00
2022-11-18T05:54:21.997Z,100.00
2022-11-18T05:56:48.585Z,100.00
2022-11-18T05:59:15.840Z,100.00
2022-11-18T06:02:06.214Z,100.00
2022-11-18T06:04:42.982Z,100.00
2022-11-18T06:07:21.176Z,100.00
2022-11-18T06:09:51.243Z,100.00
2022-11-18T06:12:22.146Z,100.00
2022-11-18T06:15:19.923Z,100.00
2022-11-18T06:17:52.531Z,100.00
2022-11-18T06:20:20.808Z,100.00
2022-11-18T06:22:50.001Z,100.00
2022-11-18T06:25:16.948Z,100.00
2022-11-18T06:27:44.297Z,100.00
2022-11-18T06:30:11.529Z,100.00
2022-11-18T06:32:37.912Z,100.00
2022-11-18T06:35:04.641Z,100.00
2022-11-18T06:37:31.014Z,100.00
2022-11-18T06:39:57.378Z,100.00
2022-11-18T06:42:42.262Z,100.00
2022-11-18T06:45:09.289Z,100.00
2022-11-18T06:47:35.748Z,100.00
2022-11-18T06:50:02.184Z,100.00
2022-11-18T06:52:28.594Z,100.00
2022-11-18T06:54:54.952Z,100.00
2022-11-18T06:57:21.303Z,100.00
2022-11-18T06:59:47.660Z,100.00
2022-11-18T07:02:14.098Z,100.00
2022-11-18T07:04:41.009Z,100.00
2022-11-18T07:07:07.994Z,100.00
2022-11-18T07:09:35.588Z,100.00
2022-11-18T07:12:03.003Z,100.00
2022-11-18T07:14:29.509Z,100.00
2022-11-18T07:16:55.979Z,100.00
2022-11-18T07:19:22.504Z,100.00
2022-11-18T07:21:48.983Z,100.00
2022-11-18T07:24:16.236Z,100.00
2022-11-18T07:26:43.319Z,100.00
2022-11-18T07:29:10.221Z,100.00
2022-11-18T07:31:40.799Z,100.00
2022-11-18T07:34:07.915Z,100.00
2022-11-18T07:36:36.030Z,100.00
2022-11-18T07:39:04.936Z,100.00
2022-11-18T07:41:31.521Z,100.00
2022-11-18T07:44:01.086Z,100.00
2022-11-18T07:46:30.253Z,100.00
2022-11-18T07:48:58.341Z,100.00
2022-11-18T07:51:27.899Z,100.00
2022-11-18T07:53:54.546Z,100.00
2022-11-18T07:56:21.753Z,100.00
2022-11-18T07:58:51.977Z,100.00
2022-11-18T08:01:20.460Z,100.00
2022-11-18T08:03:47.611Z,100.00
2022-11-18T08:06:16.116Z,100.00
2022-11-18T08:08:43.105Z,100.00
2022-11-18T08:11:15.189Z,100.00
2022-11-18T08:13:45.450Z,100.00
2022-11-18T08:16:19.866Z,100.00
2022-11-18T08:18:47.082Z,100.00
2022-11-18T08:21:14.945Z,100.00
2022-11-18T08:23:42.401Z,100.00
2022-11-18T08:26:14.370Z,100.00
2022-11-18T08:28:44.759Z,100.00
2022-11-18T08:31:13.458Z,100.00
2022-11-18T08:33:40.192Z,100.00
2022-11-18T08:36:14.201Z,100.00
2022-11-18T08:38:40.641Z,100.00
2022-11-18T08:41:07.335Z,100.00
2022-11-18T08:43:36.783Z,100.00
2022-11-18T08:46:03.342Z,100.00
2022-11-18T08:48:29.717Z,100.00
2022-11-18T08:50:58.045Z,100.00
2022-11-18T08:53:24.419Z,100.00
2022-11-18T08:55:58.299Z,100.00
2022-11-18T08:58:25.830Z,100.00
2022-11-18T09:00:52.895Z,100.00
2022-11-18T09:03:19.571Z,100.00
2022-11-18T09:05:46.083Z,100.00
2022-11-18T09:08:12.464Z,100.00
2022-11-18T09:10:38.929Z,100.00
2022-11-18T09:13:33.405Z,100.00
2022-11-18T09:15:51.661Z,100.00
2022-11-18T09:18:18.074Z,100.00
2022-11-18T09:20:54.517Z,100.00
2022-11-18T09:23:20.918Z,100.00
2022-11-18T09:25:47.376Z,100.00
2022-11-18T09:28:13.810Z,100.00
2022-11-18T09:30:40.710Z,100.00
2022-11-18T09:33:07.733Z,100.00
2022-11-18T09:35:34.100Z,100.00
2022-11-18T09:38:00.483Z,100.00
2022-11-18T09:40:27.717Z,100.00
2022-11-18T09:43:15.961Z,100.00
2022-11-18T09:45:48.750Z,100.00
2022-11-18T09:48:20.489Z,100.00
2022-11-18T09:50:50.079Z,100.00
2022-11-18T09:53:21.946Z,100.00
2022-11-18T09:55:50.498Z,100.00
2022-11-18T09:58:28.604Z,100.00
2022-11-18T10:00:55.046Z,100.00
2022-11-18T10:03:30.934Z,100.00
2022-11-18T10:06:04.467Z,100.00
2022-11-18T10:08:50.904Z,100.00
2022-11-18T10:11:19.863Z,100.00
2022-11-18T10:13:52.295Z,100.00
2022-11-18T10:16:41.965Z,100.00
2022-11-18T10:19:26.535Z,100.00
2022-11-18T10:22:18.047Z,100.00
2022-11-18T10:24:56.351Z,100.00
2022-11-18T10:27:26.353Z,100.00
2022-11-18T10:29:57.122Z,100.00
2022-11-18T10:32:24.212Z,100.00
2022-11-18T10:34:52.092Z,100.00
2022-11-18T10:40:28.675Z,100.00
2022-11-18T10:42:55.445Z,100.00
2022-11-18T10:45:21.790Z,100.00
2022-11-18T10:47:58.414Z,100.00
2022-11-18T10:50:33.196Z,100.00
2022-11-18T10:53:00.166Z,100.00
2022-11-18T10:55:28.434Z,100.00
2022-11-18T10:58:08.356Z,100.00
2022-11-18T11:00:44.273Z,100.00
2022-11-18T11:03:36.029Z,100.00
2022-11-18T11:06:26.611Z,100.00
2022-11-18T11:08:58.918Z,100.00
2022-11-18T11:11:39.852Z,100.00
2022-11-18T11:14:15.146Z,100.00
2022-11-18T11:16:48.364Z,100.00
2022-11-18T11:19:19.758Z,100.00
2022-11-18T11:21:46.253Z,100.00
2022-11-18T11:24:12.953Z,100.00
2022-11-18T11:30:15.404Z,100.00
2022-11-18T11:32:52.906Z,100.00
2022-11-18T11:35:25.992Z,100.00
2022-11-18T11:37:59.145Z,100.00
2022-11-18T11:40:34.765Z,100.00
2022-11-18T11:43:01.078Z,100.00
2022-11-18T11:45:30.281Z,100.00
2022-11-18T11:48:10.278Z,100.00
2022-11-18T11:51:03.339Z,100.00
2022-11-18T11:53:55.202Z,100.00
2022-11-18T11:56:58.917Z,100.00
2022-11-18T11:59:31.311Z,100.00
2022-11-18T12:02:02.549Z,100.00
2022-11-18T12:04:38.518Z,100.00
2022-11-18T12:07:12.873Z,100.00
2022-11-18T12:09:51.551Z,100.00
2022-11-18T12:12:38.152Z,87.64
2022-11-18T12:15:29.254Z,100.00
2022-11-18T12:18:16.897Z,88.68
2022-11-18T12:20:53.887Z,92.99
2022-11-18T12:23:20.822Z,100.00
2022-11-18T12:25:56.483Z,96.38
2022-11-18T12:28:43.757Z,82.01
2022-11-18T12:31:16.184Z,81.85
2022-11-18T12:33:47.514Z,88.21
2022-11-18T12:36:30.780Z,65.70
2022-11-18T12:38:57.999Z,78.09
2022-11-18T12:41:58.228Z,61.66
2022-11-18T12:44:27.445Z,74.36
2022-11-18T12:46:55.809Z,73.41
2022-11-18T12:49:22.442Z,73.57
2022-11-18T12:51:51.021Z,70.39
2022-11-18T12:54:22.911Z,60.27
2022-11-18T12:56:50.946Z,65.34
2022-11-18T12:59:26.189Z,64.90
2022-11-18T13:02:22.343Z,56.53
2022-11-18T13:05:07.054Z,54.69
2022-11-18T13:07:59.762Z,56.11
2022-11-18T13:10:29.463Z,55.11
2022-11-18T13:12:56.053Z,55.98
2022-11-18T13:15:41.902Z,55.93
2022-11-18T13:18:15.603Z,52.31
2022-11-18T13:20:43.053Z,55.85
2022-11-18T13:23:28.126Z,57.00
2022-11-18T13:26:02.708Z,58.17
2022-11-18T13:28:40.462Z,54.77
2022-11-18T13:31:40.197Z,54.02
2022-11-18T13:34:25.700Z,54.21
2022-11-18T13:36:54.018Z,58.90
2022-11-18T13:39:23.940Z,59.30
2022-11-18T13:42:03.797Z,57.29
2022-11-18T13:44:36.254Z,58.56
2022-11-18T13:47:21.039Z,59.17
2022-11-18T13:49:55.345Z,61.80
2022-11-18T13:52:31.197Z,62.28
2022-11-18T13:55:01.421Z,63.32
2022-11-18T13:57:29.304Z,62.34
2022-11-18T14:00:00.632Z,61.84
2022-11-18T14:02:27.170Z,62.29
2022-11-18T14:04:57.943Z,60.74
2022-11-18T14:07:31.411Z,60.07
2022-11-18T14:10:05.339Z,59.62
2022-11-18T14:12:33.712Z,61.34
2022-11-18T14:15:22.786Z,61.09
2022-11-18T14:17:51.795Z,62.93
2022-11-18T14:20:18.976Z,63.51
2022-11-18T14:22:47.661Z,64.16
2022-11-18T14:25:22.339Z,62.98
2022-11-18T14:27:50.882Z,64.49
2022-11-18T14:30:37.465Z,62.99
2022-11-18T14:33:15.224Z,64.08
2022-11-18T14:35:44.385Z,66.68
2022-11-18T14:38:44.081Z,64.92
2022-11-18T14:41:43.899Z,67.44
2022-11-18T14:44:10.699Z,68.08
2022-11-18T14:46:38.558Z,68.70
2022-11-18T14:49:10.202Z,69.86
2022-11-18T14:51:36.648Z,70.92
2022-11-18T14:54:03.074Z,71.42
2022-11-18T14:56:31.905Z,72.19
2022-11-18T14:58:58.810Z,73.18
2022-11-18T15:01:30.286Z,75.60
2022-11-18T15:03:57.218Z,80.20
2022-11-18T15:06:24.669Z,84.06
2022-11-18T15:08:53.034Z,82.79
2022-11-18T15:11:19.789Z,84.38
2022-11-18T15:13:46.306Z,88.06
2022-11-18T15:16:19.932Z,91.17
2022-11-18T15:18:49.643Z,93.27
2022-11-18T15:21:16.565Z,95.95
2022-11-18T15:23:43.613Z,98.17
2022-11-18T15:26:24.847Z,100.00
2022-11-18T15:28:53.713Z,100.00
2022-11-18T15:31:20.809Z,100.00
2022-11-18T15:33:49.864Z,100.00
2022-11-18T15:36:22.736Z,100.00
2022-11-18T15:38:50.279Z,100.00
2022-11-18T15:41:16.878Z,100.00
2022-11-18T15:43:44.970Z,100.00
2022-11-18T15:46:11.501Z,100.00
2022-11-18T15:48:38.072Z,100.00
2022-11-18T15:51:11.475Z,100.00
2022-11-18T15:53:38.728Z,100.00
2022-11-18T15:56:13.966Z,100.00
2022-11-18T15:58:40.364Z,100.00
2022-11-18T16:01:06.818Z,100.00
2022-11-18T16:03:36.256Z,100.00
2022-11-18T16:06:02.859Z,100.00
2022-11-18T16:08:30.375Z,100.00
2022-11-18T16:11:16.190Z,100.00
2022-11-18T16:13:43.315Z,100.00
2022-11-18T16:16:23.676Z,100.00
2022-11-18T16:18:54.254Z,100.00
2022-11-18T16:21:21.647Z,100.00
2022-11-18T16:23:48.045Z,100.00
2022-11-18T16:26:17.389Z,100.00
2022-11-18T16:28:44.104Z,100.00
2022-11-18T16:31:29.402Z,100.00
2022-11-18T16:33:55.808Z,100.00
2022-11-18T16:36:27.123Z,100.00
2022-11-18T16:38:54.234Z,100.00
2022-11-18T16:41:32.745Z,100.00
2022-11-18T16:44:00.653Z,100.00
2022-11-18T16:46:27.183Z,100.00
2022-11-18T16:48:53.590Z,100.00
2022-11-18T16:51:31.426Z,100.00
2022-11-18T16:54:04.428Z,100.00
2022-11-18T16:56:33.754Z,100.00
2022-11-18T16:59:11.858Z,100.00
2022-11-18T17:01:43.016Z,100.00
2022-11-18T17:04:11.640Z,100.00
2022-11-18T17:06:38.289Z,100.00
2022-11-18T17:09:04.848Z,100.00
2022-11-18T17:11:38.626Z,100.00
2022-11-18T17:14:05.029Z,100.00
2022-11-18T17:16:32.498Z,100.00
2022-11-18T17:19:00.675Z,100.00
2022-11-18T17:21:29.014Z,100.00
2022-11-18T17:23:56.200Z,100.00
2022-11-18T17:26:27.552Z,100.00
2022-11-18T17:28:57.198Z,100.00
2022-11-18T17:31:24.519Z,100.00
2022-11-18T17:33:53.041Z,100.00
2022-11-18T17:36:22.528Z,100.00
2022-11-18T17:38:51.061Z,100.00
2022-11-18T17:41:38.815Z,100.00
2022-11-18T17:44:07.374Z,100.00
2022-11-18T17:46:38.058Z,100.00
2022-11-18T17:49:12.211Z,100.00
2022-11-18T17:51:38.735Z,100.00
2022-11-18T17:54:05.536Z,100.00
2022-11-18T17:56:33.139Z,100.00
2022-11-18T17:58:59.728Z,100.00
2022-11-18T18:01:26.227Z,100.00
2022-11-18T18:03:53.259Z,100.00
2022-11-18T18:06:22.757Z,100.00
2022-11-18T18:08:49.170Z,100.00
2022-11-18T18:11:18.382Z,100.00
2022-11-18T18:14:04.348Z,100.00
2022-11-18T18:16:32.698Z,100.00
2022-11-18T18:19:00.499Z,100.00
2022-11-18T18:21:27.439Z,100.00
2022-11-18T18:23:54.130Z,100.00
2022-11-18T18:26:20.643Z,100.00
2022-11-18T18:28:47.411Z,100.00
2022-11-18T18:31:16.539Z,100.00
2022-11-18T18:33:43.372Z,100.00
2022-11-18T18:36:13.228Z,100.00
2022-11-18T18:38:40.794Z,100.00
2022-11-18T18:41:13.369Z,100.00
2022-11-18T18:43:40.305Z,100.00
2022-11-18T18:46:30.467Z,100.00
2022-11-18T18:49:02.024Z,100.00
2022-11-18T18:51:31.324Z,100.00
2022-11-18T18:53:58.935Z,100.00
2022-11-18T18:56:25.686Z,100.00
2022-11-18T18:58:52.155Z,100.00
2022-11-18T19:01:19.869Z,100.00
2022-11-18T19:03:46.470Z,100.00
2022-11-18T19:09:18.215Z,100.00
2022-11-18T19:12:03.813Z,100.00
2022-11-18T19:14:30.249Z,100.00
2022-11-18T19:16:58.472Z,100.00
2022-11-18T19:19:45.459Z,100.00
2022-11-18T19:22:13.891Z,100.00
2022-11-18T19:24:56.653Z,100.00
2022-11-18T19:27:23.535Z,100.00
2022-11-18T19:29:51.353Z,100.00
2022-11-18T19:32:18.252Z,100.00
2022-11-18T19:34:47.408Z,100.00
2022-11-18T19:37:15.419Z,100.00
2022-11-18T19:39:42.359Z,100.00
2022-11-18T19:42:10.680Z,100.00
2022-11-18T19:44:37.437Z,100.00
2022-11-18T19:47:03.945Z,100.00
2022-11-18T19:49:32.101Z,100.00
2022-11-18T19:51:58.542Z,100.00
2022-11-18T19:54:24.922Z,100.00
2022-11-18T19:56:57.679Z,100.00
2022-11-18T19:59:24.099Z,100.00
2022-11-18T20:01:50.691Z,100.00
2022-11-18T20:04:17.446Z,100.00
2022-11-18T20:06:43.914Z,100.00
2022-11-18T20:09:11.083Z,100.00
2022-11-18T20:11:38.343Z,100.00
2022-11-18T20:14:11.166Z,100.00
2022-11-18T20:16:38.556Z,100.00
2022-11-18T20:19:10.754Z,100.00
2022-11-18T20:21:38.990Z,100.00
2022-11-18T20:24:07.172Z,100.00
2022-11-18T20:26:36.101Z,100.00
2022-11-18T20:29:02.753Z,100.00
2022-11-18T20:31:29.555Z,100.00
2022-11-18T20:33:59.069Z,100.00
2022-11-18T20:36:38.259Z,100.00
2022-11-18T20:39:12.097Z,100.00
2022-11-18T20:41:40.409Z,100.00
2022-11-18T20:44:07.041Z,100.00
2022-11-18T20:46:34.389Z,100.00
2022-11-18T20:49:01.648Z,100.00
2022-11-18T20:51:28.758Z,100.00
2022-11-18T20:54:01.465Z,100.00
2022-11-18T20:56:28.606Z,100.00
2022-11-18T20:58:56.922Z,100.00
2022-11-18T21:01:26.746Z,100.00
2022-11-18T21:03:55.959Z,100.00
2022-11-18T21:06:27.616Z,100.00
2022-11-18T21:08:58.901Z,100.00
2022-11-18T21:11:26.532Z,100.00
2022-11-18T21:14:11.842Z,100.00
2022-11-18T21:16:39.904Z,100.00
2022-11-18T21:19:06.650Z,100.00
2022-11-18T21:21:44.976Z,100.00
2022-11-18T21:24:14.041Z,100.00
2022-11-18T21:26:41.129Z,100.00
2022-11-18T21:29:09.847Z,100.00
2022-11-18T21:31:37.055Z,100.00
2022-11-18T21:34:04.012Z,100.00
2022-11-18T21:36:31.047Z,100.00
2022-11-18T21:38:58.936Z,100.00
2022-11-18T21:41:27.014Z,100.00
2022-11-18T21:44:09.251Z,100.00
2022-11-18T21:46:37.543Z,100.00
2022-11-18T21:49:04.903Z,100.00
2022-11-18T21:51:32.482Z,100.00
2022-11-18T21:53:59.853Z,100.00
2022-11-18T21:56:29.373Z,100.00
2022-11-18T21:58:57.054Z,100.00
2022-11-18T22:01:31.856Z,100.00
2022-11-18T22:04:01.080Z,100.00
2022-11-18T22:06:30.236Z,100.00
2022-11-18T22:08:57.291Z,100.00
2022-11-18T22:11:25.615Z,100.00
2022-11-18T22:13:53.028Z,100.00
2022-11-18T22:16:22.444Z,100.00
2022-11-18T22:18:56.601Z,100.00
2022-11-18T22:21:26.450Z,100.00
2022-11-18T22:23:57.832Z,100.00
2022-11-18T22:26:24.265Z,100.00
2022-11-18T22:28:56.056Z,100.00
2022-11-18T22:31:24.305Z,100.00
2022-11-18T22:33:52.183Z,100.00
2022-11-18T22:36:20.739Z,100.00
2022-11-18T22:38:47.381Z,100.00
2022-11-18T22:41:37.794Z,100.00
2022-11-18T22:44:08.213Z,100.00
2022-11-18T22:46:39.372Z,100.00
2022-11-18T22:49:07.362Z,100.00
2022-11-18T22:51:36.002Z,100.00
2022-11-18T22:56:48.929Z,100.00
2022-11-18T22:59:15.535Z,100.00
2022-11-18T23:01:42.028Z,100.00
2022-11-18T23:04:08.465Z,100.00
2022-11-18T23:06:35.188Z,100.00
2022-11-18T23:09:02.284Z,100.00
2022-11-18T23:11:47.337Z,100.00
2022-11-18T23:14:13.790Z,100.00
2022-11-18T23:16:42.145Z,100.00
2022-11-18T23:19:14.263Z,100.00
2022-11-18T23:21:41.974Z,100.00
2022-11-18T23:24:12.281Z,100.00
2022-11-18T23:26:38.720Z,100.00
2022-11-18T23:29:05.577Z,100.00
2022-11-18T23:31:32.410Z,100.00
2022-11-18T23:33:59.565Z,100.00
2022-11-18T23:36:26.869Z,100.00
2022-11-18T23:38:54.074Z,100.00
2022-11-18T23:41:21.007Z,100.00
2022-11-18T23:43:48.414Z,100.00
2022-11-18T23:46:16.406Z,100.00
2022-11-18T23:48:43.943Z,100.00
2022-11-18T23:51:13.397Z,100.00
2022-11-18T23:53:40.694Z,100.00
2022-11-18T23:56:13.131Z,100.00
2022-11-18T23:58:41.332Z,100.00
